createdAt,value
2018-07-03T00:02:04.457Z,37.40
2018-07-03T00:04:33.553Z,37.60
2018-07-03T00:07:02.684Z,38.10
2018-07-03T00:09:31.773Z,37.50
2018-07-03T00:12:00.842Z,37.60
2018-07-03T00:14:29.950Z,37.60
2018-07-03T00:17:04.860Z,37.90
2018-07-03T00:19:33.963Z,37.60
2018-07-03T00:22:03.044Z,38.20
2018-07-03T00:24:32.090Z,38.20
2018-07-03T00:27:01.162Z,38.20
2018-07-03T00:29:30.336Z,39.90
2018-07-03T00:31:59.388Z,38.50
2018-07-03T00:34:28.975Z,39.00
2018-07-03T00:36:58.077Z,38.40
2018-07-03T00:39:27.398Z,38.70
2018-07-03T00:41:56.541Z,38.20
2018-07-03T00:44:25.629Z,38.20
2018-07-03T00:46:55.356Z,40.70
2018-07-03T00:49:24.748Z,38.80
2018-07-03T00:51:53.879Z,39.10
2018-07-03T00:54:22.950Z,39.40
2018-07-03T00:56:52.048Z,38.80
2018-07-03T00:59:21.430Z,39.40
2018-07-03T01:01:50.495Z,39.30
2018-07-03T01:04:19.820Z,39.00
2018-07-03T01:06:49.247Z,40.30
2018-07-03T01:09:18.311Z,40.30
2018-07-03T01:11:47.570Z,38.50
2018-07-03T01:14:16.641Z,39.10
2018-07-03T01:16:45.948Z,38.80
2018-07-03T01:19:15.354Z,39.40
2018-07-03T01:21:44.957Z,39.30
2018-07-03T01:24:13.997Z,39.00
2018-07-03T01:26:46.472Z,39.10
2018-07-03T01:29:15.773Z,38.80
2018-07-03T01:31:45.187Z,40.00
2018-07-03T01:34:14.293Z,39.10
2018-07-03T01:36:43.688Z,39.60
2018-07-03T01:39:12.746Z,39.00
2018-07-03T01:41:41.859Z,41.60
2018-07-03T01:44:10.910Z,39.30
2018-07-03T01:46:40.531Z,39.40
2018-07-03T01:49:09.618Z,39.90
2018-07-03T01:51:38.795Z,40.60
2018-07-03T01:54:08.169Z,41.50
2018-07-03T01:56:37.513Z,40.30
2018-07-03T01:59:06.910Z,40.90
2018-07-03T02:01:35.966Z,41.00
2018-07-03T02:04:05.094Z,40.20
2018-07-03T02:06:34.818Z,41.30
2018-07-03T02:09:06.223Z,39.60
2018-07-03T02:11:35.290Z,39.40
2018-07-03T02:14:04.668Z,40.60
2018-07-03T02:16:34.372Z,39.30
2018-07-03T02:19:03.755Z,39.00
2018-07-03T02:21:33.222Z,43.00
2018-07-03T02:26:31.157Z,40.70
2018-07-03T02:29:00.238Z,40.50
2018-07-03T02:31:29.757Z,40.30
2018-07-03T02:33:58.853Z,40.20
2018-07-03T02:36:27.928Z,39.90
2018-07-03T02:38:57.326Z,40.20
2018-07-03T02:41:26.430Z,39.60
2018-07-03T02:43:55.800Z,41.00
2018-07-03T02:46:24.863Z,39.60
2018-07-03T02:48:53.943Z,40.30
2018-07-03T02:51:23.008Z,42.70
2018-07-03T02:53:52.061Z,40.20
2018-07-03T02:56:21.141Z,39.90
2018-07-03T02:58:50.236Z,41.30
2018-07-03T03:01:19.299Z,40.30
2018-07-03T03:03:48.370Z,40.70
2018-07-03T03:06:17.522Z,40.90
2018-07-03T03:08:46.586Z,39.90
2018-07-03T03:11:15.688Z,40.60
2018-07-03T03:13:44.881Z,39.60
2018-07-03T03:16:15.397Z,40.20
2018-07-03T03:18:44.770Z,39.10
2018-07-03T03:21:14.126Z,38.70
2018-07-03T03:23:44.868Z,39.10
2018-07-03T03:26:14.218Z,38.50
2018-07-03T03:28:43.985Z,38.10
2018-07-03T03:31:13.230Z,38.20
2018-07-03T03:33:42.281Z,38.10
2018-07-03T03:36:11.342Z,38.20
2018-07-03T03:38:40.764Z,38.70
2018-07-03T03:41:09.846Z,38.20
2018-07-03T03:43:38.957Z,38.20
2018-07-03T03:46:08.445Z,38.40
2018-07-03T03:48:37.526Z,39.30
2018-07-03T03:51:06.925Z,38.70
2018-07-03T03:53:36.045Z,38.40
2018-07-03T03:56:05.165Z,38.20
2018-07-03T03:58:34.226Z,38.50
2018-07-03T04:01:03.678Z,38.40
2018-07-03T04:03:32.810Z,38.20
2018-07-03T04:06:01.974Z,38.20
2018-07-03T04:08:31.078Z,38.40
2018-07-03T04:11:00.198Z,38.70
2018-07-03T04:13:29.326Z,38.80
2018-07-03T04:15:58.480Z,39.10
2018-07-03T04:18:37.614Z,38.50
2018-07-03T04:21:07.938Z,39.60
2018-07-03T04:23:38.146Z,40.30
2018-07-03T04:26:07.286Z,39.60
2018-07-03T04:28:36.673Z,39.60
2018-07-03T04:31:05.756Z,40.20
2018-07-03T04:33:34.883Z,39.70
2018-07-03T04:36:04.136Z,39.40
2018-07-03T04:38:33.479Z,39.30
2018-07-03T04:41:02.547Z,40.50
2018-07-03T04:43:31.942Z,39.30
2018-07-03T04:46:01.033Z,39.40
2018-07-03T04:48:30.589Z,38.80
2018-07-03T04:50:59.794Z,37.80
2018-07-03T04:53:28.888Z,38.20
2018-07-03T04:55:57.988Z,37.90
2018-07-03T04:58:27.363Z,37.10
2018-07-03T05:00:56.472Z,37.60
2018-07-03T05:03:25.542Z,37.20
2018-07-03T05:05:54.970Z,36.60
2018-07-03T05:08:24.355Z,36.50
2018-07-03T05:10:53.427Z,35.70
2018-07-03T05:13:22.559Z,36.00
2018-07-03T05:15:51.708Z,36.00
2018-07-03T05:18:20.789Z,36.50
2018-07-03T05:20:49.915Z,36.80
2018-07-03T05:23:19.009Z,37.40
2018-07-03T05:25:48.081Z,37.80
2018-07-03T05:28:17.506Z,38.50
2018-07-03T05:30:46.954Z,38.80
2018-07-03T05:33:22.731Z,38.20
2018-07-03T05:35:51.860Z,37.60
2018-07-03T05:38:21.255Z,37.50
2018-07-03T05:40:50.387Z,37.40
2018-07-03T05:43:19.537Z,37.40
2018-07-03T05:45:48.613Z,36.90
2018-07-03T05:48:17.709Z,36.80
2018-07-03T05:50:47.046Z,36.60
2018-07-03T05:53:16.384Z,37.20
2018-07-03T05:55:45.511Z,37.80
2018-07-03T05:58:14.839Z,37.80
2018-07-03T06:00:43.954Z,37.50
2018-07-03T06:03:13.061Z,37.80
2018-07-03T06:05:42.166Z,37.90
2018-07-03T06:08:11.522Z,37.60
2018-07-03T06:10:40.629Z,38.40
2018-07-03T06:13:10.041Z,37.10
2018-07-03T06:15:39.402Z,37.20
2018-07-03T06:18:08.629Z,36.90
2018-07-03T06:20:38.260Z,36.30
2018-07-03T06:23:07.326Z,35.60
2018-07-03T06:25:36.769Z,36.30
2018-07-03T06:28:05.955Z,35.30
2018-07-03T06:30:35.830Z,34.80
2018-07-03T06:33:04.920Z,34.10
2018-07-03T06:35:34.034Z,33.40
2018-07-03T06:38:03.210Z,31.90
2018-07-03T06:40:32.350Z,32.60
2018-07-03T06:43:01.443Z,31.10
2018-07-03T06:45:30.590Z,29.60
2018-07-03T06:48:00.027Z,29.80
2018-07-03T06:50:29.148Z,29.40
2018-07-03T06:52:58.246Z,29.60
2018-07-03T06:55:28.253Z,29.70
2018-07-03T06:57:57.449Z,29.80
2018-07-03T07:00:26.752Z,27.50
2018-07-03T07:02:56.302Z,27.40
2018-07-03T07:05:25.878Z,27.80
2018-07-03T07:07:54.978Z,26.70
2018-07-03T07:10:24.073Z,25.70
2018-07-03T07:12:53.178Z,26.20
2018-07-03T07:15:22.323Z,25.80
2018-07-03T07:17:51.423Z,26.10
2018-07-03T07:20:21.169Z,25.40
2018-07-03T07:22:50.267Z,24.60
2018-07-03T07:25:19.630Z,24.20
2018-07-03T07:27:48.972Z,25.30
2018-07-03T07:30:18.669Z,25.00
2018-07-03T07:32:47.857Z,25.00
2018-07-03T07:35:17.390Z,24.60
2018-07-03T07:37:49.427Z,23.40
2018-07-03T07:40:19.465Z,23.90
2018-07-03T07:42:49.590Z,23.00
2018-07-03T07:47:48.820Z,23.30
2018-07-03T07:50:17.979Z,23.50
2018-07-03T07:52:47.180Z,23.20
2018-07-03T07:55:16.565Z,23.00
2018-07-03T07:57:45.698Z,22.40
2018-07-03T08:00:15.080Z,22.70
2018-07-03T08:02:44.239Z,22.40
2018-07-03T08:05:13.353Z,22.30
2018-07-03T08:07:42.597Z,22.20
2018-07-03T08:10:11.846Z,21.80
2018-07-03T08:12:40.951Z,21.90
2018-07-03T08:15:10.104Z,21.30
2018-07-03T08:17:39.358Z,21.10
2018-07-03T08:20:08.464Z,21.00
2018-07-03T08:22:37.774Z,20.80
2018-07-03T08:25:06.951Z,20.80
2018-07-03T08:27:36.299Z,19.30
2018-07-03T08:30:06.481Z,20.00
2018-07-03T08:32:35.705Z,20.10
2018-07-03T08:35:07.245Z,19.50
2018-07-03T08:37:36.607Z,19.90
2018-07-03T08:40:06.949Z,19.20
2018-07-03T08:42:36.453Z,19.90
2018-07-03T08:45:06.325Z,18.40
2018-07-03T08:47:35.481Z,19.20
2018-07-03T08:50:05.318Z,19.00
2018-07-03T08:52:34.433Z,18.20
2018-07-03T08:55:04.038Z,18.10
2018-07-03T08:57:33.189Z,19.50
2018-07-03T09:00:02.330Z,18.50
2018-07-03T09:02:31.456Z,17.60
2018-07-03T09:05:00.991Z,17.70
2018-07-03T09:07:30.068Z,18.30
2018-07-03T09:09:59.858Z,17.20
2018-07-03T09:12:29.045Z,18.00
2018-07-03T09:14:58.121Z,17.60
2018-07-03T09:17:29.177Z,16.60
2018-07-03T09:19:59.450Z,17.40
2018-07-03T09:22:28.891Z,17.40
2018-07-03T09:24:58.161Z,18.80
2018-07-03T09:27:27.305Z,18.60
2018-07-03T09:29:56.554Z,18.10
2018-07-03T09:32:25.755Z,17.70
2018-07-03T09:34:55.370Z,17.30
2018-07-03T09:37:24.759Z,17.00
2018-07-03T09:39:54.070Z,16.60
2018-07-03T09:42:23.213Z,16.10
2018-07-03T09:44:52.305Z,18.30
2018-07-03T09:47:21.683Z,17.40
2018-07-03T09:49:50.762Z,17.50
2018-07-03T09:52:20.358Z,17.00
2018-07-03T09:54:49.562Z,15.80
2018-07-03T09:57:18.646Z,16.60
2018-07-03T09:59:47.927Z,16.30
2018-07-03T10:02:17.022Z,17.00
2018-07-03T10:04:46.109Z,16.10
2018-07-03T10:07:15.181Z,16.40
2018-07-03T10:09:45.332Z,16.10
2018-07-03T10:12:14.445Z,15.70
2018-07-03T10:14:43.530Z,16.10
2018-07-03T10:17:13.223Z,15.30
2018-07-03T10:19:43.930Z,15.50
2018-07-03T10:22:13.701Z,15.10
2018-07-03T10:24:42.838Z,15.60
2018-07-03T10:27:11.945Z,15.10
2018-07-03T10:29:41.024Z,15.20
2018-07-03T10:32:10.162Z,15.10
2018-07-03T10:34:39.267Z,15.70
2018-07-03T10:37:08.555Z,14.60
2018-07-03T10:39:37.808Z,14.30
2018-07-03T10:42:06.915Z,15.70
2018-07-03T10:44:35.987Z,16.00
2018-07-03T10:47:05.568Z,15.90
2018-07-03T10:49:35.506Z,15.50
2018-07-03T10:52:04.817Z,15.40
2018-07-03T10:57:02.858Z,14.70
2018-07-03T10:59:31.936Z,14.10
2018-07-03T11:02:01.146Z,15.80
2018-07-03T11:04:31.221Z,15.20
2018-07-03T11:07:00.559Z,15.20
2018-07-03T11:09:29.931Z,14.80
2018-07-03T11:11:59.064Z,14.90
2018-07-03T11:14:29.263Z,14.60
2018-07-03T11:16:58.382Z,12.80
2018-07-03T11:19:27.680Z,13.40
2018-07-03T11:21:57.058Z,14.10
2018-07-03T11:24:26.220Z,14.20
2018-07-03T11:26:55.330Z,14.10
2018-07-03T11:29:24.443Z,13.80
2018-07-03T11:31:53.957Z,13.30
2018-07-03T11:34:23.311Z,14.00
2018-07-03T11:36:52.405Z,13.60
2018-07-03T11:39:21.587Z,12.90
2018-07-03T11:41:50.769Z,13.00
2018-07-03T11:44:19.832Z,13.50
2018-07-03T11:46:49.059Z,13.70
2018-07-03T11:49:18.360Z,14.00
2018-07-03T11:51:47.763Z,12.80
2018-07-03T11:54:16.995Z,13.60
2018-07-03T11:56:46.134Z,12.70
2018-07-03T11:59:15.252Z,13.70
2018-07-03T12:01:44.540Z,14.20
2018-07-03T12:04:13.751Z,14.30
2018-07-03T12:06:42.839Z,13.40
2018-07-03T12:09:12.395Z,13.00
2018-07-03T12:11:41.551Z,14.30
2018-07-03T12:14:11.145Z,14.10
2018-07-03T12:16:40.246Z,14.40
2018-07-03T12:19:09.449Z,13.70
2018-07-03T12:21:38.586Z,14.30
2018-07-03T12:24:07.833Z,14.30
2018-07-03T12:26:37.005Z,14.40
2018-07-03T12:29:06.555Z,14.70
2018-07-03T12:31:35.735Z,14.40
2018-07-03T12:34:04.845Z,15.40
2018-07-03T12:36:34.344Z,15.00
2018-07-03T12:39:05.278Z,15.20
2018-07-03T12:41:34.376Z,14.70
2018-07-03T12:44:04.123Z,14.50
2018-07-03T12:46:33.289Z,15.10
2018-07-03T12:49:02.411Z,14.90
2018-07-03T12:51:31.970Z,14.80
2018-07-03T12:54:01.148Z,14.20
2018-07-03T12:56:30.318Z,14.80
2018-07-03T12:58:59.969Z,14.90
2018-07-03T13:01:29.434Z,14.80
2018-07-03T13:06:28.272Z,14.70
2018-07-03T13:08:57.700Z,14.50
2018-07-03T13:11:27.104Z,14.30
2018-07-03T13:13:56.226Z,14.00
2018-07-03T13:16:25.625Z,15.00
2018-07-03T13:18:54.995Z,15.30
2018-07-03T13:21:24.255Z,15.50
2018-07-03T13:23:53.403Z,15.20
2018-07-03T13:26:22.537Z,15.50
2018-07-03T13:28:51.919Z,14.50
2018-07-03T13:31:21.313Z,15.60
2018-07-03T13:33:50.777Z,15.70
2018-07-03T13:36:19.918Z,15.70
2018-07-03T13:38:49.524Z,15.50
2018-07-03T13:41:18.884Z,15.80
2018-07-03T13:43:48.537Z,15.50
2018-07-03T13:46:17.628Z,15.90
2018-07-03T13:48:46.999Z,15.70
2018-07-03T13:51:16.475Z,16.60
2018-07-03T13:56:14.670Z,16.20
2018-07-03T13:58:44.125Z,15.70
2018-07-03T14:01:13.262Z,16.00
2018-07-03T14:03:43.143Z,15.70
2018-07-03T14:06:12.282Z,16.40
2018-07-03T14:08:41.397Z,16.50
2018-07-03T14:11:10.781Z,16.50
2018-07-03T14:13:39.942Z,16.90
2018-07-03T14:16:11.277Z,16.70
2018-07-03T14:18:40.369Z,16.80
2018-07-03T14:21:09.461Z,17.80
2018-07-03T14:23:38.574Z,16.90
2018-07-03T14:26:08.006Z,16.80
2018-07-03T14:28:37.040Z,16.30
2018-07-03T14:31:06.420Z,16.80
2018-07-03T14:33:35.702Z,17.00
2018-07-03T14:36:05.392Z,17.00
2018-07-03T14:38:35.610Z,17.10
2018-07-03T14:41:05.011Z,16.50
2018-07-03T14:43:34.829Z,17.50
2018-07-03T14:46:04.626Z,17.80
2018-07-03T14:48:33.738Z,17.50
2018-07-03T14:51:02.829Z,17.00
2018-07-03T14:53:34.917Z,16.40
2018-07-03T14:56:05.038Z,17.10
2018-07-03T14:58:34.570Z,17.80
2018-07-03T15:01:03.884Z,18.00
2018-07-03T15:03:33.185Z,17.40
2018-07-03T15:06:02.302Z,18.40
2018-07-03T15:08:32.134Z,17.50
2018-07-03T15:11:03.948Z,18.30
2018-07-03T15:13:33.941Z,18.10
2018-07-03T15:16:03.591Z,18.40
2018-07-03T15:18:38.178Z,17.40
2018-07-03T15:21:07.281Z,17.60
2018-07-03T15:23:36.657Z,18.30
2018-07-03T15:26:06.063Z,18.90
2018-07-03T15:28:36.239Z,18.70
2018-07-03T15:31:05.419Z,19.10
2018-07-03T15:33:34.655Z,18.20
2018-07-03T15:36:03.782Z,19.10
2018-07-03T15:38:33.686Z,17.90
2018-07-03T15:41:02.907Z,18.10
2018-07-03T15:43:32.020Z,18.20
2018-07-03T15:46:01.630Z,18.90
2018-07-03T15:48:30.719Z,18.00
2018-07-03T15:51:01.253Z,19.50
2018-07-03T15:53:30.358Z,19.30
2018-07-03T15:55:59.533Z,19.10
2018-07-03T15:58:29.121Z,19.20
2018-07-03T16:00:58.426Z,18.30
2018-07-03T16:05:41.796Z,18.60
2018-07-03T16:09:20.904Z,19.20
2018-07-03T16:11:50.126Z,19.30
2018-07-03T16:14:19.332Z,18.50
2018-07-03T16:16:48.452Z,18.70
2018-07-03T16:19:22.875Z,19.30
2018-07-03T16:21:52.332Z,19.50
2018-07-03T16:24:21.527Z,19.00
2018-07-03T16:26:50.759Z,19.10
2018-07-03T16:29:19.943Z,18.30
2018-07-03T16:31:49.035Z,18.70
2018-07-03T16:34:18.721Z,18.70
2018-07-03T16:36:47.883Z,18.60
2018-07-03T16:39:17.048Z,19.70
2018-07-03T16:41:47.041Z,18.70
2018-07-03T16:44:16.298Z,18.90
2018-07-03T16:46:45.865Z,18.60
2018-07-03T16:49:15.054Z,19.10
2018-07-03T16:51:44.152Z,18.70
2018-07-03T16:54:16.280Z,18.60
2018-07-03T16:56:45.901Z,19.10
2018-07-03T16:59:15.326Z,19.40
2018-07-03T17:01:44.406Z,19.30
2018-07-03T17:04:13.930Z,20.00
2018-07-03T17:06:43.042Z,19.90
2018-07-03T17:09:12.800Z,19.60
2018-07-03T17:11:41.974Z,19.60
2018-07-03T17:14:11.548Z,19.20
2018-07-03T17:16:41.500Z,19.40
2018-07-03T17:19:15.993Z,19.40
2018-07-03T17:21:45.150Z,20.30
2018-07-03T17:24:14.272Z,20.20
2018-07-03T17:26:43.472Z,20.20
2018-07-03T17:29:12.583Z,20.00
2018-07-03T17:31:41.660Z,19.90
2018-07-03T17:34:11.268Z,20.50
2018-07-03T17:36:40.649Z,20.50
2018-07-03T17:39:17.368Z,20.10
2018-07-03T17:41:57.796Z,20.90
2018-07-03T17:45:51.962Z,20.70
2018-07-03T17:48:21.089Z,20.60
2018-07-03T17:50:50.155Z,21.10
2018-07-03T17:53:19.571Z,20.70
2018-07-03T17:55:48.727Z,20.50
2018-07-03T17:58:17.807Z,21.00
2018-07-03T18:00:47.705Z,21.00
2018-07-03T18:03:16.682Z,20.60
2018-07-03T18:05:45.781Z,20.90
2018-07-03T18:08:15.406Z,20.30
2018-07-03T18:10:44.585Z,20.90
2018-07-03T18:13:13.661Z,20.90
2018-07-03T18:15:42.725Z,20.90
2018-07-03T18:18:11.889Z,21.10
2018-07-03T18:20:41.001Z,20.70
2018-07-03T18:23:10.141Z,21.00
2018-07-03T18:25:39.607Z,20.70
2018-07-03T18:28:08.917Z,21.30
2018-07-03T18:30:39.191Z,21.40
2018-07-03T18:33:08.921Z,21.00
2018-07-03T18:35:38.324Z,21.40
2018-07-03T18:38:07.531Z,21.20
2018-07-03T18:40:36.626Z,21.30
2018-07-03T18:43:05.749Z,20.90
2018-07-03T18:45:36.742Z,21.00
2018-07-03T18:48:06.216Z,21.30
2018-07-03T18:50:35.978Z,21.40
2018-07-03T18:53:05.172Z,21.20
2018-07-03T18:55:34.320Z,21.80
2018-07-03T18:58:04.062Z,21.30
2018-07-03T19:00:33.284Z,21.30
2018-07-03T19:03:02.481Z,21.80
2018-07-03T19:05:31.662Z,21.60
2018-07-03T19:08:01.594Z,21.80
2018-07-03T19:10:30.863Z,21.90
2018-07-03T19:13:00.487Z,22.10
2018-07-03T19:15:30.538Z,21.80
2018-07-03T19:18:00.251Z,22.20
2018-07-03T19:20:29.425Z,22.30
2018-07-03T19:22:58.592Z,22.10
2018-07-03T19:25:30.102Z,22.40
2018-07-03T19:27:59.913Z,22.50
2018-07-03T19:30:29.361Z,22.30
2018-07-03T19:32:58.864Z,22.60
2018-07-03T19:35:28.673Z,22.50
2018-07-03T19:37:58.217Z,22.50
2018-07-03T19:40:27.374Z,22.90
2018-07-03T19:43:33.988Z,22.80
2018-07-03T19:46:03.903Z,23.20
2018-07-03T19:48:33.249Z,23.30
2018-07-03T19:51:02.511Z,23.40
2018-07-03T19:53:31.751Z,23.90
2018-07-03T19:56:02.283Z,23.90
2018-07-03T19:58:32.129Z,23.80
2018-07-03T20:01:01.416Z,24.00
2018-07-03T20:03:31.180Z,24.10
2018-07-03T20:06:00.324Z,24.40
2018-07-03T20:08:29.684Z,24.60
2018-07-03T20:10:58.931Z,24.90
2018-07-03T20:13:28.219Z,25.00
2018-07-03T20:15:57.399Z,25.20
2018-07-03T20:18:26.529Z,25.20
2018-07-03T20:20:55.755Z,25.30
2018-07-03T20:23:27.347Z,25.00
2018-07-03T20:25:59.264Z,25.30
2018-07-03T20:28:28.428Z,25.50
2018-07-03T20:30:58.073Z,25.70
2018-07-03T20:33:27.522Z,25.90
2018-07-03T20:35:56.683Z,25.80
2018-07-03T20:38:26.182Z,26.00
2018-07-03T20:40:58.455Z,26.00
2018-07-03T20:43:29.212Z,26.70
2018-07-03T20:45:58.956Z,26.20
2018-07-03T20:48:29.698Z,26.30
2018-07-03T20:50:59.417Z,26.10
2018-07-03T20:53:28.766Z,26.40
2018-07-03T20:55:58.247Z,26.50
2018-07-03T20:58:27.455Z,26.40
2018-07-03T21:00:56.766Z,26.30
2018-07-03T21:03:26.268Z,26.30
2018-07-03T21:05:55.698Z,26.60
2018-07-03T21:08:24.754Z,26.70
2018-07-03T21:10:56.309Z,27.00
2018-07-03T21:13:25.714Z,27.30
2018-07-03T21:15:54.853Z,27.80
2018-07-03T21:18:23.950Z,28.50
2018-07-03T21:20:53.066Z,29.30
2018-07-03T21:23:22.143Z,29.50
2018-07-03T21:25:51.546Z,29.90
2018-07-03T21:28:20.909Z,30.10
2018-07-03T21:30:50.254Z,30.60
2018-07-03T21:33:19.333Z,30.80
2018-07-03T21:35:48.735Z,30.80
2018-07-03T21:38:17.806Z,31.10
2018-07-03T21:40:47.407Z,31.10
2018-07-03T21:43:16.560Z,31.10
2018-07-03T21:45:45.790Z,31.00
2018-07-03T21:48:14.918Z,31.00
2018-07-03T21:50:44.072Z,31.10
2018-07-03T21:53:13.710Z,31.40
2018-07-03T21:55:43.310Z,31.90
2018-07-03T21:58:17.906Z,32.20
2018-07-03T22:00:47.589Z,32.20
2018-07-03T22:03:18.907Z,32.30
2018-07-03T22:05:48.311Z,32.60
2018-07-03T22:08:17.563Z,32.60
2018-07-03T22:10:46.625Z,32.60
2018-07-03T22:13:15.711Z,32.60
2018-07-03T22:15:45.165Z,32.60
2018-07-03T22:18:14.250Z,32.60
2018-07-03T22:20:43.537Z,32.50
2018-07-03T22:23:12.615Z,32.80
2018-07-03T22:25:41.874Z,33.20
2018-07-03T22:28:10.985Z,33.40
2018-07-03T22:30:40.090Z,33.20
2018-07-03T22:33:09.291Z,33.20
2018-07-03T22:35:38.433Z,33.40
2018-07-03T22:38:07.798Z,33.50
2018-07-03T22:40:41.276Z,33.70
2018-07-03T22:43:11.170Z,33.70
2018-07-03T22:45:40.624Z,33.80
2018-07-03T22:48:09.930Z,34.10
2018-07-03T22:50:39.021Z,34.20
2018-07-03T22:53:08.086Z,34.50
2018-07-03T22:55:37.191Z,34.70
2018-07-03T22:58:06.716Z,34.70
2018-07-03T23:00:35.799Z,34.70
2018-07-03T23:03:05.429Z,34.70
2018-07-03T23:05:34.474Z,34.80
2018-07-03T23:08:03.924Z,35.10
2018-07-03T23:10:33.296Z,35.30
2018-07-03T23:13:03.511Z,35.60
2018-07-03T23:15:33.550Z,35.40
2018-07-03T23:18:02.682Z,35.30
2018-07-03T23:20:32.337Z,35.10
2018-07-03T23:23:01.735Z,34.80
2018-07-03T23:25:30.810Z,35.10
2018-07-03T23:27:59.903Z,35.30
2018-07-03T23:30:29.235Z,35.40
2018-07-03T23:32:58.330Z,35.30
2018-07-03T23:35:27.396Z,35.10
2018-07-03T23:37:56.520Z,35.00
2018-07-03T23:40:25.570Z,34.80
2018-07-03T23:42:54.669Z,34.70
2018-07-03T23:45:27.903Z,34.50
2018-07-03T23:48:08.427Z,34.50
2018-07-03T23:50:48.883Z,34.50
2018-07-03T23:53:29.286Z,34.70
2018-07-03T23:56:09.922Z,34.40
2018-07-03T23:58:50.321Z,34.20
